Time;durP1;ratioP1;P1;durP2;ratioP2;P2;SDS_P1;SDS_P2;PMS_P1;PMS_P2;Temp;Humidity;BMP_temperature;BMP_pressure;BME280_temperature;BME280_humidity;BME280_pressure;Samples;Min_cycle;Max_cycle;Signal;HPM_P1;HPM_P2
2021/05/02 00:04:13;;;;;;;42.70;23.50;;;;;;;9.90;93.21;100080.44;714677;1199;114148;-75
2021/05/02 00:19:34;;;;;;;30.18;16.65;;;;;;;9.86;93.75;100079.06;714812;1176;114333;-75
2021/05/02 00:34:55;;;;;;;28.23;15.95;;;;;;;9.65;94.81;100047.73;714885;1199;114839;-75
2021/05/02 00:50:16;;;;;;;27.45;13.25;;;;;;;9.45;95.51;100039.83;714800;1202;114286;-75
2021/05/02 01:05:41;;;;;;;20.85;11.78;;;;;;;9.37;95.96;100028.35;714634;1199;114953;-75
2021/05/02 01:21:02;;;;;;;40.08;13.50;;;;;;;9.31;95.04;100046.25;714733;1174;114248;-75
2021/05/02 01:36:23;;;;;;;32.30;14.43;;;;;;;9.19;94.67;100015.91;714880;1198;114333;-75
2021/05/02 01:51:43;;;;;;;18.10;9.33;;;;;;;9.02;94.81;99983.34;715411;1178;115503;-75
2021/05/02 02:07:05;;;;;;;14.23;8.33;;;;;;;8.86;93.52;99956.86;715001;1199;113464;-75
2021/05/02 02:22:27;;;;;;;16.73;8.95;;;;;;;8.75;93.29;99908.91;715004;1202;113654;-76
2021/05/02 02:37:55;;;;;;;19.73;7.73;;;;;;;8.69;89.74;99885.90;715395;1177;114048;-75
2021/05/02 02:53:18;;;;;;;11.60;5.65;;;;;;;8.69;88.12;99885.90;715341;1198;114218;-75
2021/05/02 03:08:40;;;;;;;19.75;9.03;;;;;;;8.74;86.39;99872.44;715133;1185;113585;-76
2021/05/02 03:24:05;;;;;;;25.03;12.85;;;;;;;8.67;85.44;99832.92;715382;1199;114195;-75
2021/05/02 03:39:26;;;;;;;10.28;6.78;;;;;;;8.65;85.99;99840.88;715316;1174;113446;-75
2021/05/02 03:54:51;;;;;;;8.18;5.60;;;;;;;8.78;84.62;99824.95;714999;1199;115155;-75
2021/05/02 04:10:12;;;;;;;9.55;5.78;;;;;;;8.89;84.67;99817.95;715127;1186;113188;-75
2021/05/02 04:25:32;;;;;;;6.83;5.18;;;;;;;9.01;84.27;99805.56;714638;1202;112979;-75
2021/05/02 04:40:52;;;;;;;11.00;6.48;;;;;;;9.07;85.95;99803.23;716270;1202;113104;-75
2021/05/02 04:56:13;;;;;;;16.83;7.65;;;;;;;9.15;85.52;99798.13;714897;1199;113723;-75
2021/05/02 05:11:34;;;;;;;56.70;22.95;;;;;;;9.32;86.19;99785.32;717346;1165;114611;-80
2021/05/02 05:26:55;;;;;;;76.37;29.03;;;;;;;9.43;85.75;99781.72;714246;1200;113433;-78
2021/05/02 05:42:15;;;;;;;67.53;34.53;;;;;;;9.58;86.01;99771.63;714145;1203;114135;-78
2021/05/02 05:57:36;;;;;;;22.18;13.20;;;;;;;9.62;86.74;99731.09;713989;1200;114788;-79
2021/05/02 06:12:57;;;;;;;49.60;18.33;;;;;;;9.75;85.91;99702.81;714018;1200;114339;-79
2021/05/02 06:28:17;;;;;;;14.78;8.83;;;;;;;9.81;85.63;99691.73;713943;1200;114788;-78
2021/05/02 06:43:38;;;;;;;10.10;6.05;;;;;;;9.77;83.47;99687.75;714472;1200;114703;-79
2021/05/02 06:58:58;;;;;;;41.57;31.17;;;;;;;9.59;81.88;99677.20;714525;1199;113205;-79
2021/05/02 07:14:19;;;;;;;16.30;8.75;;;;;;;9.46;80.71;99651.37;714471;1203;113550;-78
2021/05/02 07:29:40;;;;;;;39.58;19.98;;;;;;;9.24;83.49;99618.51;714524;1203;113203;-75
2021/05/02 07:45:01;;;;;;;38.30;17.57;;;;;;;8.97;88.88;99612.25;714629;1200;114701;-76
2021/05/02 08:00:22;;;;;;;45.67;19.97;;;;;;;8.68;97.01;99580.91;714468;1200;114546;-76
2021/05/02 08:15:43;;;;;;;60.90;34.23;;;;;;;8.53;100.00;99561.41;714537;1200;115255;-75
2021/05/02 08:31:03;;;;;;;97.30;46.45;;;;;;;8.58;100.00;99519.98;714337;1177;114546;-75
2021/05/02 08:46:24;;;;;;;116.23;52.25;;;;;;;8.49;100.00;99478.02;714266;1203;113670;-74
2021/05/02 09:01:45;;;;;;;90.65;48.23;;;;;;;8.62;100.00;99440.30;714194;1203;113809;-73
2021/05/02 09:17:29;;;;;;;46.80;21.27;;;;;;;8.46;100.00;99415.58;714710;1203;115719;-74
2021/05/02 09:32:49;;;;;;;39.53;18.93;;;;;;;8.24;100.00;99397.59;714532;1200;114236;-74
2021/05/02 09:48:33;;;;;;;40.38;17.43;;;;;;;7.95;100.00;99395.88;714972;1199;114992;-74
2021/05/02 10:03:55;;;;;;;51.55;20.48;;;;;;;7.69;100.00;99378.16;714654;1199;115174;-74
2021/05/02 10:19:16;;;;;;;38.48;19.50;;;;;;;7.52;100.00;99358.80;714494;1199;113720;-75
2021/05/02 10:34:42;;;;;;;29.30;13.60;;;;;;;7.23;100.00;99325.73;714549;1200;113642;-75
2021/05/02 10:50:03;;;;;;;31.83;13.33;;;;;;;7.07;100.00;99294.13;714716;1200;115112;-71
2021/05/02 11:05:23;;;;;;;36.35;15.05;;;;;;;6.96;100.00;99255.98;714785;1199;114639;-71
2021/05/02 11:20:44;;;;;;;23.35;11.53;;;;;;;6.79;100.00;99213.16;714414;1178;114864;-73
2021/05/02 11:36:05;;;;;;;29.18;11.75;;;;;;;6.49;100.00;99168.85;714334;1203;113829;-73
2021/05/02 11:51:27;;;;;;;40.68;25.13;;;;;;;6.45;100.00;99078.05;715334;1178;113856;-74
2021/05/02 12:06:55;;;;;;;38.60;21.75;;;;;;;6.36;100.00;99065.86;714401;1199;114980;-72
2021/05/02 12:22:16;;;;;;;19.95;10.70;;;;;;;6.31;100.00;99072.31;714047;1199;115370;-72
2021/05/02 12:37:36;;;;;;;31.38;12.50;;;;;;;6.29;100.00;99086.42;713902;1176;113776;-75
2021/05/02 12:52:57;;;;;;;31.87;13.33;;;;;;;6.28;100.00;99074.36;714402;1177;113798;-74
2021/05/02 13:08:18;;;;;;;32.15;15.23;;;;;;;6.24;100.00;99073.83;713939;1190;114339;-74
2021/05/02 13:23:41;;;;;;;29.70;13.67;;;;;;;6.30;100.00;99036.80;714515;1199;114303;-73
2021/05/02 13:39:05;;;;;;;28.73;12.77;;;;;;;6.21;100.00;99026.39;714681;1178;113969;-73
2021/05/02 13:54:25;;;;;;;23.83;10.67;;;;;;;6.18;100.00;99011.87;714667;1203;114386;-73
2021/05/02 14:09:50;;;;;;;20.85;10.35;;;;;;;6.10;100.00;99029.97;714547;1176;113739;-72
2021/05/02 14:25:11;;;;;;;17.83;8.63;;;;;;;6.10;100.00;99025.57;714356;1177;113931;-71
2021/05/02 14:40:32;;;;;;;26.20;13.37;;;;;;;6.05;100.00;99027.77;713970;1177;113481;-73
2021/05/02 14:55:52;;;;;;;22.15;8.90;;;;;;;6.06;100.00;99029.41;714205;1200;114911;-71
2021/05/02 15:11:13;;;;;;;18.13;9.18;;;;;;;6.04;100.00;99041.73;714079;1199;113058;-71
2021/05/02 15:26:35;;;;;;;50.13;25.38;;;;;;;5.92;100.00;99043.61;714214;1200;114601;-71
2021/05/02 15:42:03;;;;;;;;;;;;;;;5.84;100.00;99061.69;714389;1181;115102;-71
2021/05/02 15:57:23;;;;;;;18.63;8.97;;;;;;;5.63;100.00;99069.59;714141;1200;100445;-72
2021/05/02 16:12:43;;;;;;;20.47;10.63;;;;;;;5.27;100.00;99108.22;714384;1199;114974;-73
2021/05/02 16:28:04;;;;;;;20.08;7.23;;;;;;;4.85;100.00;99148.05;714172;1177;113704;-74
2021/05/02 16:43:25;;;;;;;18.65;8.13;;;;;;;4.33;100.00;99189.48;713989;1179;113353;-73
2021/05/02 16:58:46;;;;;;;15.10;9.57;;;;;;;3.71;100.00;99204.64;713894;1199;115191;-74
2021/05/02 17:14:08;;;;;;;15.08;9.08;;;;;;;3.26;100.00;99239.11;713916;1176;114380;-71
2021/05/02 17:29:28;;;;;;;37.10;23.20;;;;;;;2.69;100.00;99256.19;714139;1199;114995;-70
2021/05/02 17:44:49;;;;;;;26.63;16.80;;;;;;;2.37;100.00;99284.38;714733;1193;114042;-70
2021/05/02 18:00:12;;;;;;;56.63;31.73;;;;;;;2.20;100.00;99308.84;720428;1199;114377;-72
2021/05/02 18:15:32;;;;;;;17.20;10.83;;;;;;;1.99;100.00;99333.48;716765;1200;115307;-71
2021/05/02 18:30:53;;;;;;;8.47;4.60;;;;;;;1.86;100.00;99362.86;714126;1200;115498;-70
2021/05/02 18:46:13;;;;;;;21.63;12.08;;;;;;;1.73;100.00;99384.37;714122;1202;114999;-70
2021/05/02 19:01:34;;;;;;;12.65;5.60;;;;;;;1.77;100.00;99416.86;714146;1199;115002;-72
2021/05/02 19:16:55;;;;;;;8.40;3.95;;;;;;;1.65;100.00;99446.11;714199;1200;114082;-71
2021/05/02 19:32:16;;;;;;;7.43;3.65;;;;;;;1.63;100.00;99484.97;714689;1200;115547;-72
2021/05/02 19:47:38;;;;;;;11.43;4.63;;;;;;;1.62;100.00;99508.34;715431;1199;114233;-71
2021/05/02 20:02:58;;;;;;;13.15;6.80;;;;;;;1.78;100.00;99506.45;714890;1203;114556;-71
2021/05/02 20:18:19;;;;;;;15.00;5.13;;;;;;;1.98;100.00;99506.93;714824;1200;113925;-70
2021/05/02 20:33:42;;;;;;;23.45;10.50;;;;;;;2.26;100.00;99526.66;714863;1177;113751;-71
2021/05/02 20:49:04;;;;;;;13.75;5.75;;;;;;;2.51;100.00;99540.58;714775;1177;113669;-71
2021/05/02 21:04:25;;;;;;;5.95;3.15;;;;;;;2.60;100.00;99567.60;714764;1199;114207;-71
2021/05/02 21:19:45;;;;;;;3.73;2.23;;;;;;;2.56;100.00;99590.30;714806;1200;114865;-71
2021/05/02 21:35:08;;;;;;;4.43;2.13;;;;;;;2.44;100.00;99616.98;714871;1177;112878;-71
2021/05/02 21:50:29;;;;;;;4.67;2.63;;;;;;;2.39;100.00;99637.16;714848;1203;113477;-71
2021/05/02 22:05:54;;;;;;;9.87;3.70;;;;;;;2.46;100.00;99641.84;714834;1177;113362;-72
2021/05/02 22:21:15;;;;;;;3.05;2.05;;;;;;;2.43;100.00;99672.27;715074;1199;113412;-73
2021/05/02 22:36:35;;;;;;;5.70;2.65;;;;;;;2.49;100.00;99679.66;714645;1180;114270;-71
2021/05/02 22:51:56;;;;;;;3.75;2.23;;;;;;;2.61;100.00;99701.34;714990;1199;114078;-72
2021/05/02 23:07:17;;;;;;;5.08;2.35;;;;;;;2.72;100.00;99716.19;715008;1200;114880;-71
2021/05/02 23:22:37;;;;;;;4.35;2.50;;;;;;;2.76;100.00;99720.24;715391;1178;113590;-71
2021/05/02 23:38:00;;;;;;;5.78;2.85;;;;;;;2.71;100.00;99738.69;715540;1199;113876;-71
2021/05/02 23:53:20;;;;;;;4.20;2.85;;;;;;;2.80;100.00;99745.05;715287;1203;113812;-71
